sensor_id;sensor_type;location;lat;lon;timestamp;P1;durP1;ratioP1;P2;durP2;ratioP2
15218;SDS011;15623;53.986;11.676;2023-05-13T00:01:51;9.43;;;5.33;;
15218;SDS011;15623;53.986;11.676;2023-05-13T00:04:24;9.33;;;5.70;;
15218;SDS011;15623;53.986;11.676;2023-05-13T00:06:51;6.33;;;5.60;;
15218;SDS011;15623;53.986;11.676;2023-05-13T00:09:18;6.20;;;5.70;;
15218;SDS011;15623;53.986;11.676;2023-05-13T00:14:19;6.07;;;5.60;;
15218;SDS011;15623;53.986;11.676;2023-05-13T00:16:48;5.73;;;5.23;;
15218;SDS011;15623;53.986;11.676;2023-05-13T00:19:23;6.50;;;5.73;;
15218;SDS011;15623;53.986;11.676;2023-05-13T00:21:58;11.00;;;5.80;;
15218;SDS011;15623;53.986;11.676;2023-05-13T00:24:31;6.73;;;5.73;;
15218;SDS011;15623;53.986;11.676;2023-05-13T00:32:24;11.57;;;6.17;;
15218;SDS011;15623;53.986;11.676;2023-05-13T00:35:04;7.70;;;6.00;;
15218;SDS011;15623;53.986;11.676;2023-05-13T00:37:34;6.80;;;6.30;;
15218;SDS011;15623;53.986;11.676;2023-05-13T00:42:33;7.20;;;6.47;;
15218;SDS011;15623;53.986;11.676;2023-05-13T00:45:02;6.83;;;6.17;;
15218;SDS011;15623;53.986;11.676;2023-05-13T00:47:29;6.47;;;5.90;;
15218;SDS011;15623;53.986;11.676;2023-05-13T00:49:57;7.00;;;6.33;;
15218;SDS011;15623;53.986;11.676;2023-05-13T00:52:27;6.40;;;5.80;;
15218;SDS011;15623;53.986;11.676;2023-05-13T00:54:56;8.13;;;6.20;;
15218;SDS011;15623;53.986;11.676;2023-05-13T00:57:27;13.50;;;6.53;;
15218;SDS011;15623;53.986;11.676;2023-05-13T00:59:59;9.20;;;6.27;;
15218;SDS011;15623;53.986;11.676;2023-05-13T01:02:29;8.83;;;6.20;;
15218;SDS011;15623;53.986;11.676;2023-05-13T01:05:02;9.57;;;6.33;;
15218;SDS011;15623;53.986;11.676;2023-05-13T01:07:37;8.73;;;6.20;;
15218;SDS011;15623;53.986;11.676;2023-05-13T01:10:13;7.17;;;6.57;;
15218;SDS011;15623;53.986;11.676;2023-05-13T01:12:44;7.27;;;6.40;;
15218;SDS011;15623;53.986;11.676;2023-05-13T01:15:13;8.60;;;6.60;;
15218;SDS011;15623;53.986;11.676;2023-05-13T01:17:45;7.90;;;6.30;;
15218;SDS011;15623;53.986;11.676;2023-05-13T01:20:16;7.07;;;6.23;;
15218;SDS011;15623;53.986;11.676;2023-05-13T01:22:52;6.90;;;6.17;;
15218;SDS011;15623;53.986;11.676;2023-05-13T01:25:20;7.10;;;6.33;;
15218;SDS011;15623;53.986;11.676;2023-05-13T01:30:33;7.20;;;6.50;;
15218;SDS011;15623;53.986;11.676;2023-05-13T01:33:06;9.47;;;6.47;;
15218;SDS011;15623;53.986;11.676;2023-05-13T01:40:38;9.40;;;6.90;;
15218;SDS011;15623;53.986;11.676;2023-05-13T01:43:14;9.13;;;6.47;;
15218;SDS011;15623;53.986;11.676;2023-05-13T01:45:43;7.30;;;6.60;;
15218;SDS011;15623;53.986;11.676;2023-05-13T01:48:12;7.50;;;6.80;;
15218;SDS011;15623;53.986;11.676;2023-05-13T01:53:11;7.50;;;6.73;;
15218;SDS011;15623;53.986;11.676;2023-05-13T01:55:47;8.87;;;6.33;;
15218;SDS011;15623;53.986;11.676;2023-05-13T01:58:16;7.90;;;6.83;;
15218;SDS011;15623;53.986;11.676;2023-05-13T02:00:43;6.90;;;6.43;;
15218;SDS011;15623;53.986;11.676;2023-05-13T02:03:17;9.53;;;7.10;;
15218;SDS011;15623;53.986;11.676;2023-05-13T02:05:45;7.50;;;6.80;;
15218;SDS011;15623;53.986;11.676;2023-05-13T02:08:21;7.30;;;6.50;;
15218;SDS011;15623;53.986;11.676;2023-05-13T02:10:56;7.10;;;6.40;;
15218;SDS011;15623;53.986;11.676;2023-05-13T02:13:24;7.07;;;6.47;;
15218;SDS011;15623;53.986;11.676;2023-05-13T02:15:53;11.30;;;6.70;;
15218;SDS011;15623;53.986;11.676;2023-05-13T02:18:28;9.07;;;6.93;;
15218;SDS011;15623;53.986;11.676;2023-05-13T02:20:55;7.47;;;6.87;;
15218;SDS011;15623;53.986;11.676;2023-05-13T02:26:08;8.20;;;7.17;;
15218;SDS011;15623;53.986;11.676;2023-05-13T02:28:36;8.30;;;6.73;;
15218;SDS011;15623;53.986;11.676;2023-05-13T02:31:11;7.07;;;6.53;;
15218;SDS011;15623;53.986;11.676;2023-05-13T02:33:57;9.17;;;6.73;;
15218;SDS011;15623;53.986;11.676;2023-05-13T02:36:25;9.80;;;6.70;;
15218;SDS011;15623;53.986;11.676;2023-05-13T02:39:00;7.73;;;7.00;;
15218;SDS011;15623;53.986;11.676;2023-05-13T02:41:33;7.57;;;6.13;;
15218;SDS011;15623;53.986;11.676;2023-05-13T02:44:01;9.53;;;7.07;;
15218;SDS011;15623;53.986;11.676;2023-05-13T02:49:31;7.37;;;6.63;;
15218;SDS011;15623;53.986;11.676;2023-05-13T02:51:58;9.17;;;6.87;;
15218;SDS011;15623;53.986;11.676;2023-05-13T02:57:01;7.30;;;6.73;;
15218;SDS011;15623;53.986;11.676;2023-05-13T02:59:29;7.77;;;7.00;;
15218;SDS011;15623;53.986;11.676;2023-05-13T03:04:28;7.90;;;7.20;;
15218;SDS011;15623;53.986;11.676;2023-05-13T03:07:09;11.87;;;7.93;;
15218;SDS011;15623;53.986;11.676;2023-05-13T03:09:36;8.23;;;7.43;;
15218;SDS011;15623;53.986;11.676;2023-05-13T03:12:23;9.57;;;7.67;;
15218;SDS011;15623;53.986;11.676;2023-05-13T03:20:16;8.83;;;7.90;;
15218;SDS011;15623;53.986;11.676;2023-05-13T03:22:56;10.60;;;8.10;;
15218;SDS011;15623;53.986;11.676;2023-05-13T03:25:23;10.87;;;7.40;;
15218;SDS011;15623;53.986;11.676;2023-05-13T03:27:59;8.60;;;7.30;;
15218;SDS011;15623;53.986;11.676;2023-05-13T03:30:33;8.77;;;7.97;;
15218;SDS011;15623;53.986;11.676;2023-05-13T03:33:01;8.43;;;7.73;;
15218;SDS011;15623;53.986;11.676;2023-05-13T03:35:28;7.70;;;7.10;;
15218;SDS011;15623;53.986;11.676;2023-05-13T03:40:29;8.20;;;7.40;;
15218;SDS011;15623;53.986;11.676;2023-05-13T03:43:15;8.47;;;7.33;;
15218;SDS011;15623;53.986;11.676;2023-05-13T03:45:55;7.97;;;7.27;;
15218;SDS011;15623;53.986;11.676;2023-05-13T03:48:34;9.10;;;7.37;;
15218;SDS011;15623;53.986;11.676;2023-05-13T03:51:08;12.43;;;7.17;;
15218;SDS011;15623;53.986;11.676;2023-05-13T03:53:44;9.50;;;6.87;;
15218;SDS011;15623;53.986;11.676;2023-05-13T03:56:11;8.23;;;7.40;;
15218;SDS011;15623;53.986;11.676;2023-05-13T03:58:45;11.67;;;7.20;;
15218;SDS011;15623;53.986;11.676;2023-05-13T04:01:15;7.60;;;6.80;;
15218;SDS011;15623;53.986;11.676;2023-05-13T04:03:44;9.60;;;6.50;;
15218;SDS011;15623;53.986;11.676;2023-05-13T04:06:13;10.47;;;6.63;;
15218;SDS011;15623;53.986;11.676;2023-05-13T04:08:44;7.07;;;6.40;;
15218;SDS011;15623;53.986;11.676;2023-05-13T04:13:48;8.60;;;6.23;;
15218;SDS011;15623;53.986;11.676;2023-05-13T04:16:21;7.13;;;6.43;;
15218;SDS011;15623;53.986;11.676;2023-05-13T04:18:56;6.83;;;6.13;;
15218;SDS011;15623;53.986;11.676;2023-05-13T04:23:56;8.43;;;6.47;;
15218;SDS011;15623;53.986;11.676;2023-05-13T04:26:33;12.40;;;6.67;;
15218;SDS011;15623;53.986;11.676;2023-05-13T04:29:03;6.47;;;5.97;;
15218;SDS011;15623;53.986;11.676;2023-05-13T04:31:31;7.83;;;5.93;;
15218;SDS011;15623;53.986;11.676;2023-05-13T04:33:59;10.20;;;6.00;;
15218;SDS011;15623;53.986;11.676;2023-05-13T04:36:27;6.53;;;5.47;;
15218;SDS011;15623;53.986;11.676;2023-05-13T04:38:55;6.30;;;5.70;;
15218;SDS011;15623;53.986;11.676;2023-05-13T04:44:07;5.90;;;5.40;;
15218;SDS011;15623;53.986;11.676;2023-05-13T04:46:37;9.90;;;5.75;;
15218;SDS011;15623;53.986;11.676;2023-05-13T04:49:06;7.97;;;5.80;;
15218;SDS011;15623;53.986;11.676;2023-05-13T04:51:35;6.10;;;5.53;;
15218;SDS011;15623;53.986;11.676;2023-05-13T04:54:02;9.27;;;6.00;;
15218;SDS011;15623;53.986;11.676;2023-05-13T04:56:30;7.68;;;5.75;;
15218;SDS011;15623;53.986;11.676;2023-05-13T04:59:04;6.15;;;5.47;;
15218;SDS011;15623;53.986;11.676;2023-05-13T05:01:33;6.13;;;5.63;;
15218;SDS011;15623;53.986;11.676;2023-05-13T05:04:00;7.07;;;5.57;;
15218;SDS011;15623;53.986;11.676;2023-05-13T05:06:34;6.07;;;5.50;;
15218;SDS011;15623;53.986;11.676;2023-05-13T05:09:02;8.43;;;5.22;;
15218;SDS011;15623;53.986;11.676;2023-05-13T05:11:31;6.05;;;5.43;;
15218;SDS011;15623;53.986;11.676;2023-05-13T05:13:59;5.78;;;5.07;;
15218;SDS011;15623;53.986;11.676;2023-05-13T05:16:27;5.88;;;5.18;;
15218;SDS011;15623;53.986;11.676;2023-05-13T05:18:57;6.50;;;4.97;;
15218;SDS011;15623;53.986;11.676;2023-05-13T05:21:33;8.00;;;5.28;;
15218;SDS011;15623;53.986;11.676;2023-05-13T05:24:17;6.95;;;4.93;;
15218;SDS011;15623;53.986;11.676;2023-05-13T05:26:53;5.57;;;5.18;;
15218;SDS011;15623;53.986;11.676;2023-05-13T05:29:21;5.85;;;5.03;;
15218;SDS011;15623;53.986;11.676;2023-05-13T05:31:58;8.02;;;5.15;;
15218;SDS011;15623;53.986;11.676;2023-05-13T05:37:09;5.53;;;4.72;;
15218;SDS011;15623;53.986;11.676;2023-05-13T05:42:33;5.50;;;4.97;;
15218;SDS011;15623;53.986;11.676;2023-05-13T05:47:40;5.75;;;5.13;;
15218;SDS011;15623;53.986;11.676;2023-05-13T05:50:10;5.75;;;4.65;;
15218;SDS011;15623;53.986;11.676;2023-05-13T05:52:43;5.35;;;4.63;;
15218;SDS011;15623;53.986;11.676;2023-05-13T05:55:10;7.97;;;4.82;;
15218;SDS011;15623;53.986;11.676;2023-05-13T05:57:39;7.22;;;4.60;;
15218;SDS011;15623;53.986;11.676;2023-05-13T06:02:48;5.32;;;4.72;;
15218;SDS011;15623;53.986;11.676;2023-05-13T06:05:17;6.90;;;5.10;;
15218;SDS011;15623;53.986;11.676;2023-05-13T06:07:46;6.00;;;4.45;;
15218;SDS011;15623;53.986;11.676;2023-05-13T06:10:24;5.00;;;4.50;;
15218;SDS011;15623;53.986;11.676;2023-05-13T06:12:53;5.32;;;4.75;;
15218;SDS011;15623;53.986;11.676;2023-05-13T06:15:29;4.90;;;4.50;;
15218;SDS011;15623;53.986;11.676;2023-05-13T06:17:59;4.65;;;4.35;;
15218;SDS011;15623;53.986;11.676;2023-05-13T06:20:31;8.45;;;4.82;;
15218;SDS011;15623;53.986;11.676;2023-05-13T06:23:09;5.13;;;4.50;;
15218;SDS011;15623;53.986;11.676;2023-05-13T06:28:41;5.50;;;4.40;;
15218;SDS011;15623;53.986;11.676;2023-05-13T06:31:08;4.95;;;4.47;;
15218;SDS011;15623;53.986;11.676;2023-05-13T06:33:37;5.32;;;4.88;;
15218;SDS011;15623;53.986;11.676;2023-05-13T06:36:12;5.05;;;4.57;;
15218;SDS011;15623;53.986;11.676;2023-05-13T06:38:46;4.78;;;4.47;;
15218;SDS011;15623;53.986;11.676;2023-05-13T06:43:51;4.35;;;3.95;;
15218;SDS011;15623;53.986;11.676;2023-05-13T06:46:18;8.02;;;4.10;;
15218;SDS011;15623;53.986;11.676;2023-05-13T07:06:23;5.65;;;4.40;;
15218;SDS011;15623;53.986;11.676;2023-05-13T07:09:06;7.20;;;4.30;;
15218;SDS011;15623;53.986;11.676;2023-05-13T07:11:35;7.03;;;4.38;;
15218;SDS011;15623;53.986;11.676;2023-05-13T07:14:04;6.18;;;3.92;;
15218;SDS011;15623;53.986;11.676;2023-05-13T07:16:34;4.60;;;4.25;;
15218;SDS011;15623;53.986;11.676;2023-05-13T07:19:02;6.88;;;4.10;;
15218;SDS011;15623;53.986;11.676;2023-05-13T07:21:42;6.20;;;4.40;;
15218;SDS011;15623;53.986;11.676;2023-05-13T07:24:23;5.05;;;4.65;;
15218;SDS011;15623;53.986;11.676;2023-05-13T07:26:52;5.55;;;4.50;;
15218;SDS011;15623;53.986;11.676;2023-05-13T07:29:20;5.57;;;4.43;;
15218;SDS011;15623;53.986;11.676;2023-05-13T07:31:51;8.20;;;4.57;;
15218;SDS011;15623;53.986;11.676;2023-05-13T07:34:22;4.72;;;4.28;;
15218;SDS011;15623;53.986;11.676;2023-05-13T07:36:55;5.50;;;4.45;;
15218;SDS011;15623;53.986;11.676;2023-05-13T07:39:23;5.22;;;4.30;;
15218;SDS011;15623;53.986;11.676;2023-05-13T07:42:05;6.50;;;4.32;;
15218;SDS011;15623;53.986;11.676;2023-05-13T07:47:20;4.13;;;3.80;;
15218;SDS011;15623;53.986;11.676;2023-05-13T07:49:52;6.65;;;4.40;;
15218;SDS011;15623;53.986;11.676;2023-05-13T07:55:08;5.88;;;4.20;;
15218;SDS011;15623;53.986;11.676;2023-05-13T07:57:37;6.05;;;4.40;;
15218;SDS011;15623;53.986;11.676;2023-05-13T08:00:06;5.82;;;4.20;;
15218;SDS011;15623;53.986;11.676;2023-05-13T08:02:35;4.80;;;4.20;;
15218;SDS011;15623;53.986;11.676;2023-05-13T08:05:04;10.60;;;4.70;;
15218;SDS011;15623;53.986;11.676;2023-05-13T08:07:36;6.32;;;4.38;;
15218;SDS011;15623;53.986;11.676;2023-05-13T08:10:14;5.28;;;4.38;;
15218;SDS011;15623;53.986;11.676;2023-05-13T08:12:48;5.15;;;4.28;;
15218;SDS011;15623;53.986;11.676;2023-05-13T08:15:21;8.38;;;4.30;;
15218;SDS011;15623;53.986;11.676;2023-05-13T08:20:21;4.78;;;3.72;;
15218;SDS011;15623;53.986;11.676;2023-05-13T08:22:54;9.02;;;4.30;;
15218;SDS011;15623;53.986;11.676;2023-05-13T08:28:00;3.83;;;3.50;;
15218;SDS011;15623;53.986;11.676;2023-05-13T08:30:32;7.25;;;4.03;;
15218;SDS011;15623;53.986;11.676;2023-05-13T08:33:14;7.40;;;4.00;;
15218;SDS011;15623;53.986;11.676;2023-05-13T08:35:45;5.38;;;3.50;;
15218;SDS011;15623;53.986;11.676;2023-05-13T08:38:12;7.53;;;3.80;;
15218;SDS011;15623;53.986;11.676;2023-05-13T08:40:41;6.20;;;3.90;;
15218;SDS011;15623;53.986;11.676;2023-05-13T08:43:12;5.65;;;3.47;;
15218;SDS011;15623;53.986;11.676;2023-05-13T08:45:41;5.50;;;3.63;;
15218;SDS011;15623;53.986;11.676;2023-05-13T08:48:13;4.10;;;3.80;;
15218;SDS011;15623;53.986;11.676;2023-05-13T08:50:47;4.10;;;3.67;;
15218;SDS011;15623;53.986;11.676;2023-05-13T08:53:24;5.95;;;3.15;;
15218;SDS011;15623;53.986;11.676;2023-05-13T08:55:58;5.63;;;3.42;;
15218;SDS011;15623;53.986;11.676;2023-05-13T09:00:59;4.43;;;3.33;;
15218;SDS011;15623;53.986;11.676;2023-05-13T09:03:28;4.35;;;3.40;;
15218;SDS011;15623;53.986;11.676;2023-05-13T09:06:04;4.05;;;3.20;;
15218;SDS011;15623;53.986;11.676;2023-05-13T09:08:31;6.78;;;3.08;;
15218;SDS011;15623;53.986;11.676;2023-05-13T09:13:30;5.90;;;3.50;;
15218;SDS011;15623;53.986;11.676;2023-05-13T09:16:03;5.32;;;3.33;;
15218;SDS011;15623;53.986;11.676;2023-05-13T09:23:54;3.88;;;2.80;;
15218;SDS011;15623;53.986;11.676;2023-05-13T09:26:28;3.40;;;3.08;;
15218;SDS011;15623;53.986;11.676;2023-05-13T09:31:43;5.13;;;3.10;;
15218;SDS011;15623;53.986;11.676;2023-05-13T09:36:53;2.92;;;2.65;;
15218;SDS011;15623;53.986;11.676;2023-05-13T09:39:32;4.60;;;2.83;;
15218;SDS011;15623;53.986;11.676;2023-05-13T09:42:13;3.70;;;3.20;;
15218;SDS011;15623;53.986;11.676;2023-05-13T09:44:43;3.67;;;2.88;;
15218;SDS011;15623;53.986;11.676;2023-05-13T09:47:22;4.50;;;3.00;;
15218;SDS011;15623;53.986;11.676;2023-05-13T09:49:55;3.47;;;3.08;;
15218;SDS011;15623;53.986;11.676;2023-05-13T09:52:23;3.30;;;3.00;;
15218;SDS011;15623;53.986;11.676;2023-05-13T09:54:54;5.53;;;3.03;;
15218;SDS011;15623;53.986;11.676;2023-05-13T09:59:59;4.60;;;2.95;;
15218;SDS011;15623;53.986;11.676;2023-05-13T10:02:32;2.80;;;2.60;;
15218;SDS011;15623;53.986;11.676;2023-05-13T10:05:01;3.05;;;2.58;;
15218;SDS011;15623;53.986;11.676;2023-05-13T10:07:37;6.55;;;2.50;;
15218;SDS011;15623;53.986;11.676;2023-05-13T10:10:07;4.00;;;2.72;;
15218;SDS011;15623;53.986;11.676;2023-05-13T10:15:18;3.08;;;2.88;;
15218;SDS011;15623;53.986;11.676;2023-05-13T10:18:05;3.10;;;2.80;;
15218;SDS011;15623;53.986;11.676;2023-05-13T10:20:33;4.22;;;2.95;;
15218;SDS011;15623;53.986;11.676;2023-05-13T10:23:01;3.10;;;2.80;;
15218;SDS011;15623;53.986;11.676;2023-05-13T10:25:37;4.93;;;2.80;;
15218;SDS011;15623;53.986;11.676;2023-05-13T10:30:37;3.03;;;2.70;;
15218;SDS011;15623;53.986;11.676;2023-05-13T10:33:12;6.18;;;2.67;;
15218;SDS011;15623;53.986;11.676;2023-05-13T10:35:49;3.10;;;2.80;;
15218;SDS011;15623;53.986;11.676;2023-05-13T10:38:23;3.30;;;2.47;;
15218;SDS011;15623;53.986;11.676;2023-05-13T10:41:04;3.78;;;2.88;;
15218;SDS011;15623;53.986;11.676;2023-05-13T10:43:34;3.10;;;2.78;;
15218;SDS011;15623;53.986;11.676;2023-05-13T10:46:04;3.15;;;2.60;;
15218;SDS011;15623;53.986;11.676;2023-05-13T10:48:47;9.68;;;3.00;;
15218;SDS011;15623;53.986;11.676;2023-05-13T10:51:17;3.97;;;2.45;;
15218;SDS011;15623;53.986;11.676;2023-05-13T10:53:55;4.75;;;2.60;;
15218;SDS011;15623;53.986;11.676;2023-05-13T10:56:30;2.88;;;2.60;;
15218;SDS011;15623;53.986;11.676;2023-05-13T10:59:00;3.10;;;2.63;;
15218;SDS011;15623;53.986;11.676;2023-05-13T11:01:29;3.30;;;2.70;;
15218;SDS011;15623;53.986;11.676;2023-05-13T11:04:10;4.00;;;2.60;;
15218;SDS011;15623;53.986;11.676;2023-05-13T11:06:41;2.60;;;2.40;;
15218;SDS011;15623;53.986;11.676;2023-05-13T11:09:13;4.13;;;2.78;;
15218;SDS011;15623;53.986;11.676;2023-05-13T11:11:41;3.47;;;2.60;;
15218;SDS011;15623;53.986;11.676;2023-05-13T11:16:53;2.90;;;2.70;;
15218;SDS011;15623;53.986;11.676;2023-05-13T11:19:29;3.03;;;2.70;;
15218;SDS011;15623;53.986;11.676;2023-05-13T11:22:04;2.78;;;2.63;;
15218;SDS011;15623;53.986;11.676;2023-05-13T11:24:35;2.65;;;2.45;;
15218;SDS011;15623;53.986;11.676;2023-05-13T11:27:18;2.90;;;2.67;;
15218;SDS011;15623;53.986;11.676;2023-05-13T11:29:49;5.20;;;2.45;;
15218;SDS011;15623;53.986;11.676;2023-05-13T11:37:43;4.68;;;2.50;;
15218;SDS011;15623;53.986;11.676;2023-05-13T11:40:22;3.78;;;2.40;;
15218;SDS011;15623;53.986;11.676;2023-05-13T11:42:51;2.70;;;2.50;;
15218;SDS011;15623;53.986;11.676;2023-05-13T11:45:24;2.70;;;2.50;;
15218;SDS011;15623;53.986;11.676;2023-05-13T11:47:53;3.58;;;2.50;;
15218;SDS011;15623;53.986;11.676;2023-05-13T11:50:21;3.40;;;2.35;;
15218;SDS011;15623;53.986;11.676;2023-05-13T11:52:57;2.70;;;2.50;;
15218;SDS011;15623;53.986;11.676;2023-05-13T11:55:24;4.28;;;2.60;;
15218;SDS011;15623;53.986;11.676;2023-05-13T11:57:52;3.20;;;2.47;;
15218;SDS011;15623;53.986;11.676;2023-05-13T12:00:29;2.83;;;2.50;;
15218;SDS011;15623;53.986;11.676;2023-05-13T12:03:04;4.45;;;2.63;;
15218;SDS011;15623;53.986;11.676;2023-05-13T12:05:37;2.88;;;2.63;;
15218;SDS011;15623;53.986;11.676;2023-05-13T12:08:07;4.22;;;2.60;;
15218;SDS011;15623;53.986;11.676;2023-05-13T12:10:41;3.58;;;2.60;;
15218;SDS011;15623;53.986;11.676;2023-05-13T12:13:11;2.78;;;2.58;;
15218;SDS011;15623;53.986;11.676;2023-05-13T12:15:40;4.47;;;2.97;;
15218;SDS011;15623;53.986;11.676;2023-05-13T12:18:07;2.60;;;2.50;;
15218;SDS011;15623;53.986;11.676;2023-05-13T12:20:43;3.17;;;2.88;;
15218;SDS011;15623;53.986;11.676;2023-05-13T12:23:12;4.53;;;2.90;;
15218;SDS011;15623;53.986;11.676;2023-05-13T12:25:44;3.85;;;2.65;;
15218;SDS011;15623;53.986;11.676;2023-05-13T12:28:24;3.97;;;2.40;;
15218;SDS011;15623;53.986;11.676;2023-05-13T12:30:52;3.92;;;2.67;;
15218;SDS011;15623;53.986;11.676;2023-05-13T12:33:21;2.60;;;2.40;;
15218;SDS011;15623;53.986;11.676;2023-05-13T12:38:28;2.95;;;2.70;;
15218;SDS011;15623;53.986;11.676;2023-05-13T12:41:10;4.32;;;2.63;;
15218;SDS011;15623;53.986;11.676;2023-05-13T12:43:45;2.67;;;2.47;;
15218;SDS011;15623;53.986;11.676;2023-05-13T12:46:14;3.30;;;2.67;;
15218;SDS011;15623;53.986;11.676;2023-05-13T12:48:54;3.80;;;2.75;;
15218;SDS011;15623;53.986;11.676;2023-05-13T12:51:22;3.53;;;2.30;;
15218;SDS011;15623;53.986;11.676;2023-05-13T12:56:39;3.30;;;2.60;;
15218;SDS011;15623;53.986;11.676;2023-05-13T12:59:08;4.93;;;2.90;;
15218;SDS011;15623;53.986;11.676;2023-05-13T13:01:37;3.72;;;2.60;;
15218;SDS011;15623;53.986;11.676;2023-05-13T13:04:09;2.75;;;2.53;;
15218;SDS011;15623;53.986;11.676;2023-05-13T13:06:36;3.50;;;2.55;;
15218;SDS011;15623;53.986;11.676;2023-05-13T13:09:12;2.83;;;2.40;;
15218;SDS011;15623;53.986;11.676;2023-05-13T13:11:41;2.70;;;2.42;;
15218;SDS011;15623;53.986;11.676;2023-05-13T13:14:16;5.80;;;3.00;;
15218;SDS011;15623;53.986;11.676;2023-05-13T13:16:44;2.70;;;2.50;;
15218;SDS011;15623;53.986;11.676;2023-05-13T13:19:22;4.32;;;2.58;;
15218;SDS011;15623;53.986;11.676;2023-05-13T13:21:49;5.35;;;2.80;;
15218;SDS011;15623;53.986;11.676;2023-05-13T13:24:16;2.70;;;2.50;;
15218;SDS011;15623;53.986;11.676;2023-05-13T13:26:46;3.88;;;2.70;;
15218;SDS011;15623;53.986;11.676;2023-05-13T13:29:24;3.38;;;2.47;;
15218;SDS011;15623;53.986;11.676;2023-05-13T13:31:57;2.80;;;2.40;;
15218;SDS011;15623;53.986;11.676;2023-05-13T13:34:26;2.85;;;2.40;;
15218;SDS011;15623;53.986;11.676;2023-05-13T13:37:02;2.35;;;2.20;;
15218;SDS011;15623;53.986;11.676;2023-05-13T13:39:31;2.45;;;2.35;;
15218;SDS011;15623;53.986;11.676;2023-05-13T13:42:11;3.08;;;2.50;;
15218;SDS011;15623;53.986;11.676;2023-05-13T13:44:55;4.50;;;2.50;;
15218;SDS011;15623;53.986;11.676;2023-05-13T13:47:24;2.63;;;2.42;;
15218;SDS011;15623;53.986;11.676;2023-05-13T13:52:24;4.82;;;2.75;;
15218;SDS011;15623;53.986;11.676;2023-05-13T13:54:54;3.35;;;2.70;;
15218;SDS011;15623;53.986;11.676;2023-05-13T13:57:27;2.55;;;2.30;;
15218;SDS011;15623;53.986;11.676;2023-05-13T14:00:00;6.93;;;2.72;;
15218;SDS011;15623;53.986;11.676;2023-05-13T14:02:28;5.07;;;2.70;;
15218;SDS011;15623;53.986;11.676;2023-05-13T14:04:57;2.63;;;2.42;;
15218;SDS011;15623;53.986;11.676;2023-05-13T14:07:32;2.70;;;2.38;;
15218;SDS011;15623;53.986;11.676;2023-05-13T14:10:18;3.33;;;2.80;;
15218;SDS011;15623;53.986;11.676;2023-05-13T14:12:51;4.22;;;2.80;;
15218;SDS011;15623;53.986;11.676;2023-05-13T14:15:23;4.50;;;2.67;;
15218;SDS011;15623;53.986;11.676;2023-05-13T14:17:59;2.88;;;2.67;;
15218;SDS011;15623;53.986;11.676;2023-05-13T14:20:34;3.00;;;2.70;;
15218;SDS011;15623;53.986;11.676;2023-05-13T14:25:56;3.08;;;2.78;;
15218;SDS011;15623;53.986;11.676;2023-05-13T14:30:55;2.83;;;2.42;;
15218;SDS011;15623;53.986;11.676;2023-05-13T14:33:22;2.72;;;2.40;;
15218;SDS011;15623;53.986;11.676;2023-05-13T14:35:50;6.18;;;2.53;;
15218;SDS011;15623;53.986;11.676;2023-05-13T14:38:17;2.90;;;2.70;;
15218;SDS011;15623;53.986;11.676;2023-05-13T14:48:48;3.22;;;2.50;;
15218;SDS011;15623;53.986;11.676;2023-05-13T14:51:16;2.60;;;2.40;;
15218;SDS011;15623;53.986;11.676;2023-05-13T14:56:37;4.75;;;2.45;;
15218;SDS011;15623;53.986;11.676;2023-05-13T15:01:40;2.72;;;2.53;;
15218;SDS011;15623;53.986;11.676;2023-05-13T15:04:12;2.78;;;2.38;;
15218;SDS011;15623;53.986;11.676;2023-05-13T15:06:41;3.15;;;2.80;;
15218;SDS011;15623;53.986;11.676;2023-05-13T15:09:12;6.50;;;2.80;;
15218;SDS011;15623;53.986;11.676;2023-05-13T15:11:42;3.95;;;2.90;;
15218;SDS011;15623;53.986;11.676;2023-05-13T15:14:21;2.95;;;2.50;;
15218;SDS011;15623;53.986;11.676;2023-05-13T15:16:51;2.70;;;2.50;;
15218;SDS011;15623;53.986;11.676;2023-05-13T15:19:23;4.07;;;2.80;;
15218;SDS011;15623;53.986;11.676;2023-05-13T15:21:54;2.80;;;2.60;;
15218;SDS011;15623;53.986;11.676;2023-05-13T15:24:21;5.05;;;2.80;;
15218;SDS011;15623;53.986;11.676;2023-05-13T15:26:50;2.72;;;2.58;;
15218;SDS011;15623;53.986;11.676;2023-05-13T15:31:50;3.10;;;2.70;;
15218;SDS011;15623;53.986;11.676;2023-05-13T15:34:30;5.45;;;2.83;;
15218;SDS011;15623;53.986;11.676;2023-05-13T15:37:04;3.30;;;3.00;;
15218;SDS011;15623;53.986;11.676;2023-05-13T15:39:45;3.97;;;2.85;;
15218;SDS011;15623;53.986;11.676;2023-05-13T15:42:17;3.00;;;2.80;;
15218;SDS011;15623;53.986;11.676;2023-05-13T15:44:47;3.20;;;2.90;;
15218;SDS011;15623;53.986;11.676;2023-05-13T15:47:16;6.25;;;3.03;;
15218;SDS011;15623;53.986;11.676;2023-05-13T15:49:55;3.00;;;2.80;;
15218;SDS011;15623;53.986;11.676;2023-05-13T15:55:08;3.08;;;2.90;;
15218;SDS011;15623;53.986;11.676;2023-05-13T16:00:18;3.17;;;2.90;;
15218;SDS011;15623;53.986;11.676;2023-05-13T16:02:47;3.40;;;3.10;;
15218;SDS011;15623;53.986;11.676;2023-05-13T16:07:56;4.40;;;2.88;;
15218;SDS011;15623;53.986;11.676;2023-05-13T16:10:38;6.35;;;3.05;;
15218;SDS011;15623;53.986;11.676;2023-05-13T16:13:13;3.30;;;3.00;;
15218;SDS011;15623;53.986;11.676;2023-05-13T16:15:51;5.28;;;3.22;;
15218;SDS011;15623;53.986;11.676;2023-05-13T16:18:27;3.72;;;2.97;;
15218;SDS011;15623;53.986;11.676;2023-05-13T16:20:56;4.45;;;3.13;;
15218;SDS011;15623;53.986;11.676;2023-05-13T16:23:26;3.28;;;3.00;;
15218;SDS011;15623;53.986;11.676;2023-05-13T16:28:35;4.45;;;2.80;;
15218;SDS011;15623;53.986;11.676;2023-05-13T16:31:13;3.63;;;2.80;;
15218;SDS011;15623;53.986;11.676;2023-05-13T16:33:48;4.55;;;3.20;;
15218;SDS011;15623;53.986;11.676;2023-05-13T16:36:16;4.93;;;3.17;;
15218;SDS011;15623;53.986;11.676;2023-05-13T16:41:19;3.53;;;3.17;;
15218;SDS011;15623;53.986;11.676;2023-05-13T16:43:47;3.30;;;3.10;;
15218;SDS011;15623;53.986;11.676;2023-05-13T16:46:22;6.70;;;3.00;;
15218;SDS011;15623;53.986;11.676;2023-05-13T16:48:55;3.28;;;3.08;;
15218;SDS011;15623;53.986;11.676;2023-05-13T16:51:24;4.63;;;2.88;;
15218;SDS011;15623;53.986;11.676;2023-05-13T16:53:53;3.58;;;2.85;;
15218;SDS011;15623;53.986;11.676;2023-05-13T16:56:26;3.20;;;2.90;;
15218;SDS011;15623;53.986;11.676;2023-05-13T16:59:07;3.72;;;3.05;;
15218;SDS011;15623;53.986;11.676;2023-05-13T17:01:37;3.17;;;2.80;;
15218;SDS011;15623;53.986;11.676;2023-05-13T17:07:06;3.63;;;2.90;;
15218;SDS011;15623;53.986;11.676;2023-05-13T17:12:41;3.10;;;2.70;;
15218;SDS011;15623;53.986;11.676;2023-05-13T17:15:09;3.50;;;3.20;;
15218;SDS011;15623;53.986;11.676;2023-05-13T17:20:10;3.42;;;3.15;;
15218;SDS011;15623;53.986;11.676;2023-05-13T17:22:39;3.30;;;2.90;;
15218;SDS011;15623;53.986;11.676;2023-05-13T17:25:27;4.13;;;2.90;;
15218;SDS011;15623;53.986;11.676;2023-05-13T17:28:12;3.10;;;2.80;;
15218;SDS011;15623;53.986;11.676;2023-05-13T17:33:12;3.30;;;3.00;;
15218;SDS011;15623;53.986;11.676;2023-05-13T17:38:29;3.40;;;3.20;;
15218;SDS011;15623;53.986;11.676;2023-05-13T17:41:01;3.38;;;3.00;;
15218;SDS011;15623;53.986;11.676;2023-05-13T17:43:38;4.22;;;2.85;;
15218;SDS011;15623;53.986;11.676;2023-05-13T17:46:08;3.10;;;2.80;;
15218;SDS011;15623;53.986;11.676;2023-05-13T17:48:39;5.60;;;3.15;;
15218;SDS011;15623;53.986;11.676;2023-05-13T17:51:20;3.67;;;3.40;;
15218;SDS011;15623;53.986;11.676;2023-05-13T17:53:48;3.55;;;3.03;;
15218;SDS011;15623;53.986;11.676;2023-05-13T17:56:15;3.30;;;3.10;;
15218;SDS011;15623;53.986;11.676;2023-05-13T18:01:33;3.58;;;3.00;;
15218;SDS011;15623;53.986;11.676;2023-05-13T18:04:02;7.25;;;2.95;;